Nagaleader — VRDD5 — position and weather

sailwx.info

Track history (hours):
 
Tides and Currents Weather Stations Pressure Air Temp Water Temp Dewpoint Dewpoint Depression Visibility Wind Speed Wind Dir Waves Ship Positions

Nagaleader

Last reported at 2014-Oct-31 01:17 UTC. Time now 2014-Oct-31 07:00 UTC.
Position N 22°33' E 120°20'.

Length 113 m; draft 7.1 m.

Type: Cargo ship. MMSI: 477926700.

Date/timePositionNaut miles runAvg speedWind from/ knotsBaromVisibWave heightAir tempDewpointWater temp
2014-Oct-31 01:17N 22°33' E 120°20'6 8.2
2014-Oct-31 00:33N 22°32' E 120°14'1212.5
2014-Oct-30 23:33N 22°43' E 120°07'18211.9
2014-Oct-30 08:20N 25°44' E 119°54'1112.8
2014-Oct-30 07:29N 25°55' E 119°52'1111.9
2014-Oct-30 06:33N 26°05' E 119°47'11 9.9
2014-Oct-30 05:28N 26°08' E 119°35'8 8.7
2014-Oct-30 04:33N 26°02' E 119°30'2 1.6
2014-Oct-30 03:29N 26°00' E 119°29'0 0.0
2014-Oct-30 02:29N 26°00' E 119°29'0 0.0
2014-Oct-30 01:29N 26°00' E 119°29'0 0.0
2014-Oct-30 00:23N 26°00' E 119°29'0 0.0
2014-Oct-29 22:11N 26°00' E 119°29'0 0.0
2014-Oct-29 21:11N 26°00' E 119°29'0 0.0
2014-Oct-29 20:23N 26°00' E 119°29'0 0.0
2014-Oct-29 19:17N 26°00' E 119°29'0 0.0
2014-Oct-29 18:29N 26°00' E 119°29'0 0.0
2014-Oct-29 17:29N 26°00' E 119°29'0 0.0
2014-Oct-29 16:29N 26°00' E 119°29'0 0.0
2014-Oct-29 15:23N 26°00' E 119°29'0 0.0
2014-Oct-29 14:29N 26°00' E 119°29'0 0.1
2014-Oct-29 13:33N 26°00' E 119°29'7 7.3
2014-Oct-29 12:33N 26°07' E 119°33'43 8.3
2014-Oct-29 07:23N 25°28' E 119°54'16210.2
2014-Oct-28 15:31N 22°47' E 120°07'1111.5
2014-Oct-28 14:33N 22°38' E 120°13'4 3.6
2014-Oct-28 13:33N 22°37' E 120°17'0 0.0
2014-Oct-28 12:33N 22°37' E 120°17'0 0.0
2014-Oct-28 11:21N 22°37' E 120°17'0 0.0
2014-Oct-28 10:26N 22°37' E 120°17'0 0.0
2014-Oct-28 09:32N 22°37' E 120°17'0 0.0
2014-Oct-28 08:32N 22°37' E 120°17'0 0.0
2014-Oct-28 07:20N 22°37' E 120°17'0 0.0
2014-Oct-28 06:26N 22°37' E 120°17'0 0.0
2014-Oct-28 05:32N 22°37' E 120°17'0 0.1
2014-Oct-28 04:32N 22°37' E 120°17'5 1.5
2014-Oct-28 01:25N 22°33' E 120°20'0 0.0
2014-Oct-27 18:28N 22°33' E 120°20'3 3.6
2014-Oct-27 17:33N 22°33' E 120°16'4 3.6
2014-Oct-27 16:33N 22°30' E 120°14'3 3.5
2014-Oct-27 15:33N 22°26' E 120°15'1 1.3
2014-Oct-27 14:33N 22°27' E 120°13'1 1.4
2014-Oct-27 13:34N 22°28' E 120°13'1 1.4
2014-Oct-27 12:34N 22°29' E 120°12'4 3.7
2014-Oct-27 11:33N 22°33' E 120°11'1413.6
2014-Oct-27 10:29N 22°46' E 120°06'20411.8
2014-Oct-26 17:18N 26°08' E 119°35'810.5
2014-Oct-26 16:33N 26°02' E 119°30'2 1.8
2014-Oct-26 15:29N 26°00' E 119°29'0 0.0
2014-Oct-26 14:23N 26°00' E 119°29'0 0.0
2014-Oct-26 13:17N 26°00' E 119°29'0 0.0
2014-Oct-26 12:29N 26°00' E 119°29'0 0.0
2014-Oct-26 11:17N 26°00' E 119°29'0 0.0
2014-Oct-26 10:29N 26°00' E 119°29'0 0.0
2014-Oct-26 09:29N 26°00' E 119°29'0 0.0
2014-Oct-26 08:29N 26°00' E 119°29'0 0.0
2014-Oct-26 07:29N 26°00' E 119°29'0 0.0
2014-Oct-26 06:29N 26°00' E 119°29'0 0.0
2014-Oct-26 05:29N 26°00' E 119°29'0 0.1
2014-Oct-26 04:29N 26°00' E 119°29'0 0.0
2014-Oct-26 03:29N 26°00' E 119°29'0 0.0
2014-Oct-26 02:23N 26°00' E 119°29'0 0.0
2014-Oct-26 01:29N 26°00' E 119°29'3 3.1
2014-Oct-26 00:33N 26°03' E 119°30'15 1.6
2014-Oct-25 15:10N 25°59' E 119°47'193 9.8
2014-Oct-24 19:33N 22°47' E 120°07'1212.4
2014-Oct-24 18:34N 22°35' E 120°12'7 6.7
2014-Oct-24 17:34N 22°34' E 120°19'0 0.0
2014-Oct-24 16:31N 22°34' E 120°19'0 0.0
2014-Oct-24 15:31N 22°34' E 120°19'0 0.0
2014-Oct-24 14:13N 22°34' E 120°19'0 0.1
2014-Oct-24 11:33N 22°33' E 120°19'1 0.1
2014-Oct-24 03:12N 22°33' E 120°20'0 0.0
2014-Oct-24 02:12N 22°33' E 120°20'2 3.8
2014-Oct-24 01:33N 22°33' E 120°17'2 1.6
2014-Oct-24 00:33N 22°31' E 120°17'5 2.1
2014-Oct-23 22:27N 22°28' E 120°13'2 1.2
2014-Oct-23 21:06N 22°30' E 120°12'2 3.1
2014-Oct-23 20:33N 22°32' E 120°12'1313.3
2014-Oct-23 19:33N 22°44' E 120°07'16912.8
2014-Oct-23 06:22N 25°33' E 119°57'3512.3
2014-Oct-23 03:31N 26°05' E 119°43'1010.1
2014-Oct-23 02:33N 26°06' E 119°32'7 6.0
2014-Oct-23 01:27N 26°00' E 119°29'0 0.0
2014-Oct-23 00:33N 26°00' E 119°29'0 0.0
2014-Oct-22 23:33N 26°00' E 119°29'0 0.0
2014-Oct-22 22:33N 26°00' E 119°29'0 0.0
2014-Oct-22 21:26N 26°00' E 119°29'0 0.0
2014-Oct-22 20:32N 26°00' E 119°29'0 0.0
2014-Oct-22 19:32N 26°00' E 119°29'0 0.0
2014-Oct-22 18:32N 26°00' E 119°29'0 0.0
2014-Oct-22 17:26N 26°00' E 119°29'0 0.0
2014-Oct-22 16:26N 26°00' E 119°29'0 0.0
2014-Oct-22 15:32N 26°00' E 119°29'0 0.0
2014-Oct-22 14:32N 26°00' E 119°29'0 0.0
2014-Oct-22 13:32N 26°00' E 119°29'0 0.0
2014-Oct-22 12:32N 26°00' E 119°29'0 0.0
2014-Oct-22 11:32N 26°00' E 119°29'0 0.0
2014-Oct-22 10:32N 26°00' E 119°29'0 0.0
2014-Oct-22 09:32N 26°00' E 119°29'0 0.0
2014-Oct-22 08:32N 26°00' E 119°29'0 0.0
2014-Oct-22 07:32N 26°00' E 119°29'0 0.0
2014-Oct-22 06:32N 26°00' E 119°29'0 0.0
2014-Oct-22 05:32N 26°00' E 119°29'0 0.0
2014-Oct-22 04:26N 26°00' E 119°29'0 0.0
2014-Oct-22 03:32N 26°00' E 119°29'0 0.0
2014-Oct-22 02:32N 26°00' E 119°29'0 0.0
2014-Oct-22 01:20N 26°00' E 119°29'0 0.0
2014-Oct-22 00:26N 26°00' E 119°29'0 0.0
2014-Oct-21 23:32N 26°00' E 119°29'0 0.0
2014-Oct-21 22:26N 26°00' E 119°29'0 0.0
2014-Oct-21 21:32N 26°00' E 119°29'0 0.0
2014-Oct-21 20:32N 26°00' E 119°29'0 0.0
2014-Oct-21 19:32N 26°00' E 119°29'0 0.0
2014-Oct-21 18:26N 26°00' E 119°29'0 0.0
2014-Oct-21 17:32N 26°00' E 119°29'0 0.0
2014-Oct-21 16:26N 26°00' E 119°29'0 0.0
2014-Oct-21 15:32N 26°00' E 119°29'0 0.0
2014-Oct-21 14:32N 26°00' E 119°29'2 2.2
2014-Oct-21 13:33N 26°02' E 119°30'6410.3
2014-Oct-21 07:22N 25°03' E 119°58'2913.6
2014-Oct-21 05:12N 24°33' E 119°57'3412.8
2014-Oct-21 02:30N 23°59' E 119°56'1313.9
2014-Oct-21 01:33N 23°46' E 119°56'  
Track history (hours):
 
Tides and Currents Weather Stations Pressure Air Temp Water Temp Dewpoint Dewpoint Depression Visibility Wind Speed Wind Dir Waves Ship Positions

Nagaleader

Last reported at 2014-Oct-31 01:17 UTC. Time now 2014-Oct-31 07:00 UTC.
Position N 22°33' E 120°20'.

Length 113 m; draft 7.1 m.

Type: Cargo ship. MMSI: 477926700.

Date/timePositionNaut miles runAvg speedWind from/ knotsBaromVisibWave heightAir tempDewpointWater temp
2014-Oct-31 01:17N 22°33' E 120°20'6 8.2
2014-Oct-31 00:33N 22°32' E 120°14'1212.5
2014-Oct-30 23:33N 22°43' E 120°07'18211.9
2014-Oct-30 08:20N 25°44' E 119°54'1112.8
2014-Oct-30 07:29N 25°55' E 119°52'1111.9
2014-Oct-30 06:33N 26°05' E 119°47'11 9.9
2014-Oct-30 05:28N 26°08' E 119°35'8 8.7
2014-Oct-30 04:33N 26°02' E 119°30'2 1.6
2014-Oct-30 03:29N 26°00' E 119°29'0 0.0
2014-Oct-30 02:29N 26°00' E 119°29'0 0.0
2014-Oct-30 01:29N 26°00' E 119°29'0 0.0
2014-Oct-30 00:23N 26°00' E 119°29'0 0.0
2014-Oct-29 22:11N 26°00' E 119°29'0 0.0
2014-Oct-29 21:11N 26°00' E 119°29'0 0.0
2014-Oct-29 20:23N 26°00' E 119°29'0 0.0
2014-Oct-29 19:17N 26°00' E 119°29'0 0.0
2014-Oct-29 18:29N 26°00' E 119°29'0 0.0
2014-Oct-29 17:29N 26°00' E 119°29'0 0.0
2014-Oct-29 16:29N 26°00' E 119°29'0 0.0
2014-Oct-29 15:23N 26°00' E 119°29'0 0.0
2014-Oct-29 14:29N 26°00' E 119°29'0 0.1
2014-Oct-29 13:33N 26°00' E 119°29'7 7.3
2014-Oct-29 12:33N 26°07' E 119°33'43 8.3
2014-Oct-29 07:23N 25°28' E 119°54'16210.2
2014-Oct-28 15:31N 22°47' E 120°07'1111.5
2014-Oct-28 14:33N 22°38' E 120°13'4 3.6
2014-Oct-28 13:33N 22°37' E 120°17'0 0.0
2014-Oct-28 12:33N 22°37' E 120°17'0 0.0
2014-Oct-28 11:21N 22°37' E 120°17'0 0.0
2014-Oct-28 10:26N 22°37' E 120°17'0 0.0
2014-Oct-28 09:32N 22°37' E 120°17'0 0.0
2014-Oct-28 08:32N 22°37' E 120°17'0 0.0
2014-Oct-28 07:20N 22°37' E 120°17'0 0.0
2014-Oct-28 06:26N 22°37' E 120°17'0 0.0
2014-Oct-28 05:32N 22°37' E 120°17'0 0.1
2014-Oct-28 04:32N 22°37' E 120°17'5 1.5
2014-Oct-28 01:25N 22°33' E 120°20'0 0.0
2014-Oct-27 18:28N 22°33' E 120°20'3 3.6
2014-Oct-27 17:33N 22°33' E 120°16'4 3.6
2014-Oct-27 16:33N 22°30' E 120°14'3 3.5
2014-Oct-27 15:33N 22°26' E 120°15'1 1.3
2014-Oct-27 14:33N 22°27' E 120°13'1 1.4
2014-Oct-27 13:34N 22°28' E 120°13'1 1.4
2014-Oct-27 12:34N 22°29' E 120°12'4 3.7
2014-Oct-27 11:33N 22°33' E 120°11'1413.6
2014-Oct-27 10:29N 22°46' E 120°06'20411.8
2014-Oct-26 17:18N 26°08' E 119°35'810.5
2014-Oct-26 16:33N 26°02' E 119°30'2 1.8
2014-Oct-26 15:29N 26°00' E 119°29'0 0.0
2014-Oct-26 14:23N 26°00' E 119°29'0 0.0
2014-Oct-26 13:17N 26°00' E 119°29'0 0.0
2014-Oct-26 12:29N 26°00' E 119°29'0 0.0
2014-Oct-26 11:17N 26°00' E 119°29'0 0.0
2014-Oct-26 10:29N 26°00' E 119°29'0 0.0
2014-Oct-26 09:29N 26°00' E 119°29'0 0.0
2014-Oct-26 08:29N 26°00' E 119°29'0 0.0
2014-Oct-26 07:29N 26°00' E 119°29'0 0.0
2014-Oct-26 06:29N 26°00' E 119°29'0 0.0
2014-Oct-26 05:29N 26°00' E 119°29'0 0.1
2014-Oct-26 04:29N 26°00' E 119°29'0 0.0
2014-Oct-26 03:29N 26°00' E 119°29'0 0.0
2014-Oct-26 02:23N 26°00' E 119°29'0 0.0
2014-Oct-26 01:29N 26°00' E 119°29'3 3.1
2014-Oct-26 00:33N 26°03' E 119°30'15 1.6
2014-Oct-25 15:10N 25°59' E 119°47'193 9.8
2014-Oct-24 19:33N 22°47' E 120°07'1212.4
2014-Oct-24 18:34N 22°35' E 120°12'7 6.7
2014-Oct-24 17:34N 22°34' E 120°19'0 0.0
2014-Oct-24 16:31N 22°34' E 120°19'0 0.0
2014-Oct-24 15:31N 22°34' E 120°19'0 0.0
2014-Oct-24 14:13N 22°34' E 120°19'0 0.1
2014-Oct-24 11:33N 22°33' E 120°19'1 0.1
2014-Oct-24 03:12N 22°33' E 120°20'0 0.0
2014-Oct-24 02:12N 22°33' E 120°20'2 3.8
2014-Oct-24 01:33N 22°33' E 120°17'2 1.6
2014-Oct-24 00:33N 22°31' E 120°17'5 2.1
2014-Oct-23 22:27N 22°28' E 120°13'2 1.2
2014-Oct-23 21:06N 22°30' E 120°12'2 3.1
2014-Oct-23 20:33N 22°32' E 120°12'1313.3
2014-Oct-23 19:33N 22°44' E 120°07'16912.8
2014-Oct-23 06:22N 25°33' E 119°57'3512.3
2014-Oct-23 03:31N 26°05' E 119°43'1010.1
2014-Oct-23 02:33N 26°06' E 119°32'7 6.0
2014-Oct-23 01:27N 26°00' E 119°29'0 0.0
2014-Oct-23 00:33N 26°00' E 119°29'0 0.0
2014-Oct-22 23:33N 26°00' E 119°29'0 0.0
2014-Oct-22 22:33N 26°00' E 119°29'0 0.0
2014-Oct-22 21:26N 26°00' E 119°29'0 0.0
2014-Oct-22 20:32N 26°00' E 119°29'0 0.0
2014-Oct-22 19:32N 26°00' E 119°29'0 0.0
2014-Oct-22 18:32N 26°00' E 119°29'0 0.0
2014-Oct-22 17:26N 26°00' E 119°29'0 0.0
2014-Oct-22 16:26N 26°00' E 119°29'0 0.0
2014-Oct-22 15:32N 26°00' E 119°29'0 0.0
2014-Oct-22 14:32N 26°00' E 119°29'0 0.0
2014-Oct-22 13:32N 26°00' E 119°29'0 0.0
2014-Oct-22 12:32N 26°00' E 119°29'0 0.0
2014-Oct-22 11:32N 26°00' E 119°29'0 0.0
2014-Oct-22 10:32N 26°00' E 119°29'0 0.0
2014-Oct-22 09:32N 26°00' E 119°29'0 0.0
2014-Oct-22 08:32N 26°00' E 119°29'0 0.0
2014-Oct-22 07:32N 26°00' E 119°29'0 0.0
2014-Oct-22 06:32N 26°00' E 119°29'0 0.0
2014-Oct-22 05:32N 26°00' E 119°29'0 0.0
2014-Oct-22 04:26N 26°00' E 119°29'0 0.0
2014-Oct-22 03:32N 26°00' E 119°29'0 0.0
2014-Oct-22 02:32N 26°00' E 119°29'0 0.0
2014-Oct-22 01:20N 26°00' E 119°29'0 0.0
2014-Oct-22 00:26N 26°00' E 119°29'0 0.0
2014-Oct-21 23:32N 26°00' E 119°29'0 0.0
2014-Oct-21 22:26N 26°00' E 119°29'0 0.0
2014-Oct-21 21:32N 26°00' E 119°29'0 0.0
2014-Oct-21 20:32N 26°00' E 119°29'0 0.0
2014-Oct-21 19:32N 26°00' E 119°29'0 0.0
2014-Oct-21 18:26N 26°00' E 119°29'0 0.0
2014-Oct-21 17:32N 26°00' E 119°29'0 0.0
2014-Oct-21 16:26N 26°00' E 119°29'0 0.0
2014-Oct-21 15:32N 26°00' E 119°29'0 0.0
2014-Oct-21 14:32N 26°00' E 119°29'2 2.2
2014-Oct-21 13:33N 26°02' E 119°30'6410.3
2014-Oct-21 07:22N 25°03' E 119°58'2913.6
2014-Oct-21 05:12N 24°33' E 119°57'3412.8
2014-Oct-21 02:30N 23°59' E 119°56'1313.9
2014-Oct-21 01:33N 23°46' E 119°56'  

Dump ship's entire track history